createdAt,value
2019-04-19T00:04:16.717Z,46.30
2019-04-19T00:09:32.157Z,46.30
2019-04-19T00:14:25.487Z,46.20
2019-04-19T00:19:46.927Z,46.30
2019-04-19T00:24:35.422Z,46.20
2019-04-19T00:29:47.996Z,46.50
2019-04-19T00:34:46.348Z,48.10
2019-04-19T00:40:18.107Z,46.00
2019-04-19T00:45:39.735Z,47.70
2019-04-19T00:50:51.128Z,47.60
2019-04-19T00:55:48.546Z,47.30
2019-04-19T01:00:43.096Z,47.40
2019-04-19T01:05:56.995Z,47.10
2019-04-19T01:11:07.850Z,47.30
2019-04-19T01:16:12.325Z,46.30
2019-04-19T01:21:06.992Z,46.40
2019-04-19T01:26:13.608Z,46.50
2019-04-19T01:31:21.395Z,46.10
2019-04-19T01:36:29.734Z,46.00
2019-04-19T01:41:44.300Z,46.10
2019-04-19T01:47:04.316Z,45.90
2019-04-19T01:52:20.553Z,46.10
2019-04-19T01:57:06.398Z,46.30
2019-04-19T02:02:14.259Z,45.90
2019-04-19T02:07:19.814Z,45.70
2019-04-19T02:12:34.601Z,45.60
2019-04-19T02:17:28.448Z,45.60
2019-04-19T02:22:34.949Z,45.80
2019-04-19T02:27:40.750Z,45.60
2019-04-19T02:33:07.025Z,45.20
2019-04-19T02:38:13.726Z,45.20
2019-04-19T02:43:27.627Z,45.10
2019-04-19T02:48:26.628Z,45.40
2019-04-19T02:53:30.020Z,45.40
2019-04-19T02:58:41.892Z,45.40
2019-04-19T03:03:57.241Z,45.50
2019-04-19T03:08:31.331Z,45.50
2019-04-19T03:13:48.792Z,45.70
2019-04-19T03:18:51.793Z,45.60
2019-04-19T03:23:59.905Z,45.60
2019-04-19T03:28:54.529Z,45.70
2019-04-19T03:34:31.518Z,45.50
2019-04-19T03:39:24.754Z,45.70
2019-04-19T03:44:25.446Z,45.50
2019-04-19T03:54:39.377Z,45.50
2019-04-19T03:59:29.009Z,45.50
2019-04-19T04:04:35.210Z,45.60
2019-04-19T04:09:47.489Z,45.60
2019-04-19T04:15:04.696Z,45.50
2019-04-19T04:19:58.393Z,45.50
2019-04-19T04:25:11.662Z,45.40
2019-04-19T04:30:19.866Z,45.30
2019-04-19T04:35:29.271Z,45.30
2019-04-19T04:40:18.938Z,45.30
2019-04-19T04:45:55.080Z,45.30
2019-04-19T04:51:01.724Z,45.30
2019-04-19T04:55:59.018Z,45.30
2019-04-19T05:01:05.265Z,45.20
2019-04-19T05:06:22.859Z,45.20
2019-04-19T05:11:28.202Z,45.00
2019-04-19T05:16:41.815Z,45.20
2019-04-19T05:21:37.240Z,45.10
2019-04-19T05:26:44.933Z,45.20
2019-04-19T05:31:37.833Z,45.10
2019-04-19T05:36:55.054Z,45.20
2019-04-19T05:42:06.256Z,45.20
2019-04-19T05:47:15.703Z,45.20
2019-04-19T05:52:27.379Z,45.20
2019-04-19T05:57:26.551Z,45.30
2019-04-19T06:02:21.947Z,45.20
2019-04-19T06:07:34.684Z,45.20
2019-04-19T06:12:28.041Z,45.20
2019-04-19T06:18:02.937Z,45.40
2019-04-19T06:23:07.403Z,45.30
2019-04-19T06:28:20.732Z,45.30
2019-04-19T06:33:19.849Z,45.30
2019-04-19T06:38:03.870Z,45.30
2019-04-19T06:43:14.294Z,45.70
2019-04-19T06:48:18.350Z,45.10
2019-04-19T06:53:18.875Z,44.00
2019-04-19T06:58:27.682Z,44.30
2019-04-19T07:03:28.317Z,44.70
2019-04-19T07:13:49.129Z,46.00
2019-04-19T07:18:56.165Z,45.60
2019-04-19T07:24:09.975Z,49.50
2019-04-19T07:28:54.140Z,46.70
2019-04-19T07:34:17.668Z,47.70
2019-04-19T07:39:24.001Z,47.00
2019-04-19T07:44:31.956Z,46.40
2019-04-19T07:49:27.325Z,47.90
2019-04-19T07:54:33.771Z,46.50
2019-04-19T08:00:05.126Z,46.50
2019-04-19T08:05:10.885Z,46.80
2019-04-19T08:10:10.838Z,46.60
2019-04-19T08:15:38.786Z,47.10
2019-04-19T08:30:17.013Z,46.40
2019-04-19T08:35:18.761Z,46.80
2019-04-19T08:40:37.487Z,46.60
2019-04-19T08:45:53.104Z,46.20
2019-04-19T08:51:00.148Z,46.50
2019-04-19T08:56:19.676Z,46.20
2019-04-19T09:01:33.313Z,46.00
2019-04-19T09:11:41.213Z,46.10
2019-04-19T09:16:51.214Z,46.10
2019-04-19T09:21:44.879Z,46.10
2019-04-19T09:26:55.296Z,46.00
2019-04-19T09:31:56.040Z,46.10
2019-04-19T09:37:03.682Z,46.10
2019-04-19T09:42:02.454Z,46.10
2019-04-19T09:47:05.780Z,46.00
2019-04-19T09:52:34.061Z,46.10
2019-04-19T09:57:33.434Z,46.10
2019-04-19T10:02:31.717Z,46.10
2019-04-19T10:07:29.282Z,46.10
2019-04-19T10:12:33.597Z,46.10
2019-04-19T10:17:38.341Z,46.10
2019-04-19T10:22:43.218Z,46.10
2019-04-19T10:27:47.452Z,46.10
2019-04-19T10:32:53.127Z,46.10
2019-04-19T10:37:57.641Z,46.10
2019-04-19T10:43:01.645Z,46.20
2019-04-19T10:48:05.712Z,46.00
2019-04-19T10:53:10.358Z,46.00
2019-04-19T10:58:14.971Z,46.00
2019-04-19T11:03:19.058Z,46.00
2019-04-19T11:08:22.892Z,46.00
2019-04-19T11:13:29.022Z,46.00
2019-04-19T11:18:31.981Z,46.50
2019-04-19T11:23:35.777Z,46.00
2019-04-19T11:28:40.708Z,46.00
2019-04-19T11:33:44.808Z,46.00
2019-04-19T11:38:49.158Z,46.00
2019-04-19T11:43:53.729Z,46.00
2019-04-19T11:48:58.090Z,45.90
2019-04-19T11:54:02.818Z,45.90
2019-04-19T11:59:12.164Z,45.90
2019-04-19T12:04:16.340Z,45.90
2019-04-19T12:09:20.637Z,45.90
2019-04-19T12:14:26.888Z,45.90
2019-04-19T12:19:52.959Z,45.90
2019-04-19T12:24:55.936Z,45.80
2019-04-19T12:30:00.369Z,45.90
2019-04-19T12:35:05.254Z,45.80
2019-04-19T12:40:09.084Z,45.80
2019-04-19T12:45:13.601Z,45.80
2019-04-19T12:50:17.941Z,45.90
2019-04-19T12:55:22.222Z,45.80
2019-04-19T13:00:29.978Z,45.80
2019-04-19T13:05:37.331Z,45.70
2019-04-19T13:10:44.860Z,45.70
2019-04-19T13:15:50.176Z,45.70
2019-04-19T13:20:53.948Z,45.70
2019-04-19T13:25:58.067Z,45.60
2019-04-19T13:31:02.667Z,45.70
2019-04-19T13:36:11.349Z,45.60
2019-04-19T13:41:37.158Z,45.60
2019-04-19T13:46:42.495Z,45.60
2019-04-19T13:51:46.682Z,45.60
2019-04-19T13:56:51.492Z,45.60
2019-04-19T14:01:56.653Z,45.50
2019-04-19T14:07:00.540Z,45.60
2019-04-19T14:12:05.280Z,45.70
2019-04-19T14:17:09.682Z,45.60
2019-04-19T14:22:13.607Z,45.50
2019-04-19T14:27:19.440Z,45.70
2019-04-19T14:32:23.581Z,45.50
2019-04-19T14:37:27.918Z,45.50
2019-04-19T14:42:32.823Z,45.50
2019-04-19T14:47:39.026Z,45.50
2019-04-19T14:52:44.291Z,45.50
2019-04-19T14:57:48.376Z,45.50
2019-04-19T15:02:56.900Z,45.50
2019-04-19T15:08:00.738Z,45.40
2019-04-19T15:13:04.941Z,45.40
2019-04-19T15:18:08.875Z,45.40
2019-04-19T15:23:12.597Z,45.40
2019-04-19T15:28:17.374Z,45.50
2019-04-19T15:33:22.595Z,45.40
2019-04-19T15:38:27.891Z,45.40
2019-04-19T15:43:32.097Z,45.40
2019-04-19T15:48:41.988Z,45.40
2019-04-19T15:53:42.397Z,45.40
2019-04-19T15:58:47.364Z,45.40
2019-04-19T16:03:58.366Z,45.40
2019-04-19T16:09:21.850Z,45.40
2019-04-19T16:14:25.905Z,45.40
2019-04-19T16:19:30.271Z,45.30
2019-04-19T16:24:54.701Z,45.40
2019-04-19T16:30:00.343Z,46.00
2019-04-19T16:35:05.662Z,45.30
2019-04-19T16:40:16.127Z,45.30
2019-04-19T16:45:19.947Z,45.30
2019-04-19T16:50:24.864Z,45.30
2019-04-19T16:55:29.669Z,45.90
2019-04-19T17:00:45.048Z,45.20
2019-04-19T17:05:48.961Z,45.30
2019-04-19T17:10:53.454Z,45.20
2019-04-19T17:16:15.673Z,45.20
2019-04-19T17:21:19.855Z,45.30
2019-04-19T17:26:24.681Z,45.30
2019-04-19T17:31:29.806Z,45.20
2019-04-19T17:36:33.763Z,45.30
2019-04-19T17:41:38.704Z,45.20
2019-04-19T17:46:42.728Z,45.20
2019-04-19T17:51:56.676Z,45.20
2019-04-19T17:56:53.038Z,45.20
2019-04-19T18:01:57.233Z,45.20
2019-04-19T18:07:02.776Z,45.20
2019-04-19T18:12:07.314Z,45.20
2019-04-19T18:17:12.305Z,45.10
2019-04-19T18:22:25.736Z,45.20
2019-04-19T18:27:24.971Z,45.10
2019-04-19T18:32:36.374Z,45.10
2019-04-19T18:37:44.025Z,45.00
2019-04-19T18:42:54.940Z,45.10
2019-04-19T18:47:52.673Z,45.00
2019-04-19T18:53:07.584Z,45.00
2019-04-19T18:58:04.466Z,45.00
2019-04-19T19:03:07.495Z,44.90
2019-04-19T19:08:18.894Z,44.90
2019-04-19T19:13:24.485Z,44.90
2019-04-19T19:18:32.137Z,44.90
2019-04-19T19:23:43.372Z,44.80
2019-04-19T19:28:34.118Z,44.80
2019-04-19T19:33:44.579Z,44.70
2019-04-19T19:38:43.852Z,44.70
2019-04-19T19:44:01.236Z,44.70
2019-04-19T19:49:31.142Z,44.70
2019-04-19T19:59:19.123Z,44.70
2019-04-19T20:04:13.189Z,45.40
2019-04-19T20:09:22.830Z,44.80
2019-04-19T20:14:26.099Z,44.80
2019-04-19T20:19:28.340Z,44.70
2019-04-19T20:24:45.990Z,44.70
2019-04-19T20:29:37.643Z,45.30
2019-04-19T20:34:41.886Z,44.70
2019-04-19T20:39:48.297Z,44.60
2019-04-19T20:45:00.844Z,44.60
2019-04-19T20:49:58.327Z,44.60
2019-04-19T20:55:21.185Z,44.60
2019-04-19T21:00:11.124Z,44.50
2019-04-19T21:05:15.689Z,44.50
2019-04-19T21:10:20.800Z,44.50
2019-04-19T21:15:31.159Z,44.50
2019-04-19T21:20:34.331Z,44.50
2019-04-19T21:25:49.479Z,44.40
2019-04-19T21:30:51.764Z,44.30
2019-04-19T21:35:58.253Z,44.40
2019-04-19T21:41:01.072Z,44.40
2019-04-19T21:46:03.702Z,44.30
2019-04-19T21:51:10.747Z,44.30
2019-04-19T21:56:16.534Z,44.30
2019-04-19T22:01:20.589Z,44.30
2019-04-19T22:06:28.050Z,44.30
2019-04-19T22:11:30.091Z,44.20
2019-04-19T22:16:38.614Z,44.20
2019-04-19T22:21:44.397Z,44.30
2019-04-19T22:26:48.227Z,44.20
2019-04-19T22:31:51.776Z,44.20
2019-04-19T22:36:59.744Z,44.20
2019-04-19T22:42:02.799Z,44.20
2019-04-19T22:47:07.899Z,44.10
2019-04-19T22:52:11.985Z,44.10
2019-04-19T22:57:19.612Z,44.00
2019-04-19T23:02:44.749Z,44.10
2019-04-19T23:07:48.809Z,44.10
2019-04-19T23:12:51.345Z,44.00
2019-04-19T23:17:56.415Z,44.00
2019-04-19T23:23:00.966Z,44.00
2019-04-19T23:28:14.074Z,44.00
2019-04-19T23:33:16.515Z,43.90
2019-04-19T23:38:20.851Z,43.90
2019-04-19T23:43:28.140Z,43.90
2019-04-19T23:48:31.487Z,43.90
2019-04-19T23:53:37.409Z,43.90
2019-04-19T23:58:42.591Z,43.90
